sensor_id;sensor_type;location;lat;lon;timestamp;temperature;humidity
28010;DHT22;15334;49.494;8.410;2023-03-19T00:01:31;11.00;99.90
28010;DHT22;15334;49.494;8.410;2023-03-19T00:03:59;11.10;99.90
28010;DHT22;15334;49.494;8.410;2023-03-19T00:06:27;11.10;99.90
28010;DHT22;15334;49.494;8.410;2023-03-19T00:08:56;11.10;99.90
28010;DHT22;15334;49.494;8.410;2023-03-19T00:11:24;11.10;99.90
28010;DHT22;15334;49.494;8.410;2023-03-19T00:13:53;11.10;99.90
28010;DHT22;15334;49.494;8.410;2023-03-19T00:16:21;11.10;99.90
28010;DHT22;15334;49.494;8.410;2023-03-19T00:18:58;11.00;99.90
28010;DHT22;15334;49.494;8.410;2023-03-19T00:21:32;10.90;99.90
28010;DHT22;15334;49.494;8.410;2023-03-19T00:24:24;10.90;99.90
28010;DHT22;15334;49.494;8.410;2023-03-19T00:27:03;10.80;99.90
28010;DHT22;15334;49.494;8.410;2023-03-19T00:29:38;10.70;99.90
28010;DHT22;15334;49.494;8.410;2023-03-19T00:32:09;10.70;99.90
28010;DHT22;15334;49.494;8.410;2023-03-19T00:34:40;10.70;99.90
28010;DHT22;15334;49.494;8.410;2023-03-19T00:37:10;10.70;99.90
28010;DHT22;15334;49.494;8.410;2023-03-19T00:39:43;10.60;99.90
28010;DHT22;15334;49.494;8.410;2023-03-19T00:42:11;10.60;99.90
28010;DHT22;15334;49.494;8.410;2023-03-19T00:44:45;10.60;99.90
28010;DHT22;15334;49.494;8.410;2023-03-19T00:47:13;10.60;99.90
28010;DHT22;15334;49.494;8.410;2023-03-19T00:49:44;10.50;99.90
28010;DHT22;15334;49.494;8.410;2023-03-19T00:52:15;10.60;99.90
28010;DHT22;15334;49.494;8.410;2023-03-19T00:54:47;10.60;99.90
28010;DHT22;15334;49.494;8.410;2023-03-19T00:57:28;10.70;99.90
28010;DHT22;15334;49.494;8.410;2023-03-19T00:59:58;10.70;99.90
28010;DHT22;15334;49.494;8.410;2023-03-19T01:02:28;10.70;99.90
28010;DHT22;15334;49.494;8.410;2023-03-19T01:05:04;10.60;99.90
28010;DHT22;15334;49.494;8.410;2023-03-19T01:07:38;10.60;99.90
28010;DHT22;15334;49.494;8.410;2023-03-19T01:10:09;10.70;99.90
28010;DHT22;15334;49.494;8.410;2023-03-19T01:12:38;10.70;99.90
28010;DHT22;15334;49.494;8.410;2023-03-19T01:15:10;10.80;99.90
28010;DHT22;15334;49.494;8.410;2023-03-19T01:17:39;10.80;99.90
28010;DHT22;15334;49.494;8.410;2023-03-19T01:20:09;10.80;99.90
28010;DHT22;15334;49.494;8.410;2023-03-19T01:22:41;10.70;99.90
28010;DHT22;15334;49.494;8.410;2023-03-19T01:25:12;10.70;99.90
28010;DHT22;15334;49.494;8.410;2023-03-19T01:27:43;10.70;99.90
28010;DHT22;15334;49.494;8.410;2023-03-19T01:30:12;10.70;99.90
28010;DHT22;15334;49.494;8.410;2023-03-19T01:32:43;10.60;99.90
28010;DHT22;15334;49.494;8.410;2023-03-19T01:35:11;10.50;99.90
28010;DHT22;15334;49.494;8.410;2023-03-19T01:37:39;10.50;99.90
28010;DHT22;15334;49.494;8.410;2023-03-19T01:40:12;10.50;99.90
28010;DHT22;15334;49.494;8.410;2023-03-19T01:42:52;10.50;99.90
28010;DHT22;15334;49.494;8.410;2023-03-19T01:45:31;10.40;99.90
28010;DHT22;15334;49.494;8.410;2023-03-19T01:48:18;10.40;99.90
28010;DHT22;15334;49.494;8.410;2023-03-19T01:50:47;10.30;99.90
28010;DHT22;15334;49.494;8.410;2023-03-19T01:53:22;10.30;99.90
28010;DHT22;15334;49.494;8.410;2023-03-19T01:56:03;10.30;99.90
28010;DHT22;15334;49.494;8.410;2023-03-19T01:58:34;10.30;99.90
28010;DHT22;15334;49.494;8.410;2023-03-19T02:01:05;10.30;99.90
28010;DHT22;15334;49.494;8.410;2023-03-19T02:03:33;10.30;99.90
28010;DHT22;15334;49.494;8.410;2023-03-19T02:06:02;10.40;99.90
28010;DHT22;15334;49.494;8.410;2023-03-19T02:08:30;10.40;99.90
28010;DHT22;15334;49.494;8.410;2023-03-19T02:11:00;10.40;99.90
28010;DHT22;15334;49.494;8.410;2023-03-19T02:13:28;10.30;99.90
28010;DHT22;15334;49.494;8.410;2023-03-19T02:15:56;10.20;99.90
28010;DHT22;15334;49.494;8.410;2023-03-19T02:18:30;10.30;99.90
28010;DHT22;15334;49.494;8.410;2023-03-19T02:21:04;10.20;99.90
28010;DHT22;15334;49.494;8.410;2023-03-19T02:23:37;10.20;99.90
28010;DHT22;15334;49.494;8.410;2023-03-19T02:26:11;10.10;99.90
28010;DHT22;15334;49.494;8.410;2023-03-19T02:28:42;10.10;99.90
28010;DHT22;15334;49.494;8.410;2023-03-19T02:31:11;9.90;99.90
28010;DHT22;15334;49.494;8.410;2023-03-19T02:33:40;9.80;99.90
28010;DHT22;15334;49.494;8.410;2023-03-19T02:36:11;9.80;99.90
28010;DHT22;15334;49.494;8.410;2023-03-19T02:38:42;9.80;99.90
28010;DHT22;15334;49.494;8.410;2023-03-19T02:41:16;9.90;99.90
28010;DHT22;15334;49.494;8.410;2023-03-19T02:43:47;9.90;99.90
28010;DHT22;15334;49.494;8.410;2023-03-19T02:46:23;9.90;99.90
28010;DHT22;15334;49.494;8.410;2023-03-19T02:48:55;9.90;99.90
28010;DHT22;15334;49.494;8.410;2023-03-19T02:51:29;10.00;99.90
28010;DHT22;15334;49.494;8.410;2023-03-19T02:53:57;10.00;99.90
28010;DHT22;15334;49.494;8.410;2023-03-19T02:56:32;10.10;99.90
28010;DHT22;15334;49.494;8.410;2023-03-19T02:59:06;10.00;99.90
28010;DHT22;15334;49.494;8.410;2023-03-19T03:01:35;10.00;99.90
28010;DHT22;15334;49.494;8.410;2023-03-19T03:04:03;10.00;99.90
28010;DHT22;15334;49.494;8.410;2023-03-19T03:06:31;10.10;99.90
28010;DHT22;15334;49.494;8.410;2023-03-19T03:09:03;10.10;99.90
28010;DHT22;15334;49.494;8.410;2023-03-19T03:11:32;10.10;99.90
28010;DHT22;15334;49.494;8.410;2023-03-19T03:14:00;10.20;99.90
28010;DHT22;15334;49.494;8.410;2023-03-19T03:16:33;10.20;99.90
28010;DHT22;15334;49.494;8.410;2023-03-19T03:19:02;10.20;99.90
28010;DHT22;15334;49.494;8.410;2023-03-19T03:21:30;10.30;99.90
28010;DHT22;15334;49.494;8.410;2023-03-19T03:24:01;10.40;99.90
28010;DHT22;15334;49.494;8.410;2023-03-19T03:26:29;10.40;99.90
28010;DHT22;15334;49.494;8.410;2023-03-19T03:28:59;10.50;99.90
28010;DHT22;15334;49.494;8.410;2023-03-19T03:31:27;10.60;99.90
28010;DHT22;15334;49.494;8.410;2023-03-19T03:33:57;10.60;99.90
28010;DHT22;15334;49.494;8.410;2023-03-19T03:36:26;10.70;99.90
28010;DHT22;15334;49.494;8.410;2023-03-19T03:38:54;10.70;99.90
28010;DHT22;15334;49.494;8.410;2023-03-19T03:41:23;10.70;99.90
28010;DHT22;15334;49.494;8.410;2023-03-19T03:43:51;10.80;99.90
28010;DHT22;15334;49.494;8.410;2023-03-19T03:46:20;10.80;99.90
28010;DHT22;15334;49.494;8.410;2023-03-19T03:48:49;10.80;99.90
28010;DHT22;15334;49.494;8.410;2023-03-19T03:51:17;10.80;99.90
28010;DHT22;15334;49.494;8.410;2023-03-19T03:53:47;10.80;99.90
28010;DHT22;15334;49.494;8.410;2023-03-19T03:56:15;10.70;99.90
28010;DHT22;15334;49.494;8.410;2023-03-19T03:58:51;10.70;99.90
28010;DHT22;15334;49.494;8.410;2023-03-19T04:01:20;10.70;99.90
28010;DHT22;15334;49.494;8.410;2023-03-19T04:03:54;10.60;99.90
28010;DHT22;15334;49.494;8.410;2023-03-19T04:06:27;10.60;99.90
28010;DHT22;15334;49.494;8.410;2023-03-19T04:09:00;10.40;99.90
28010;DHT22;15334;49.494;8.410;2023-03-19T04:11:31;10.40;99.90
28010;DHT22;15334;49.494;8.410;2023-03-19T04:14:09;10.40;99.90
28010;DHT22;15334;49.494;8.410;2023-03-19T04:16:42;10.40;99.90
28010;DHT22;15334;49.494;8.410;2023-03-19T04:19:14;10.40;99.90
28010;DHT22;15334;49.494;8.410;2023-03-19T04:21:45;10.40;99.90
28010;DHT22;15334;49.494;8.410;2023-03-19T04:24:13;10.50;99.90
28010;DHT22;15334;49.494;8.410;2023-03-19T04:26:41;10.50;99.90
28010;DHT22;15334;49.494;8.410;2023-03-19T04:29:16;10.50;99.90
28010;DHT22;15334;49.494;8.410;2023-03-19T04:31:52;10.50;99.90
28010;DHT22;15334;49.494;8.410;2023-03-19T04:34:25;10.50;99.90
28010;DHT22;15334;49.494;8.410;2023-03-19T04:36:53;10.40;99.90
28010;DHT22;15334;49.494;8.410;2023-03-19T04:39:29;10.40;99.90
28010;DHT22;15334;49.494;8.410;2023-03-19T04:42:00;10.40;99.90
28010;DHT22;15334;49.494;8.410;2023-03-19T04:44:33;10.40;99.90
28010;DHT22;15334;49.494;8.410;2023-03-19T04:47:02;10.40;99.90
28010;DHT22;15334;49.494;8.410;2023-03-19T04:49:33;10.40;99.90
28010;DHT22;15334;49.494;8.410;2023-03-19T04:52:07;10.40;99.90
28010;DHT22;15334;49.494;8.410;2023-03-19T04:54:35;10.40;99.90
28010;DHT22;15334;49.494;8.410;2023-03-19T04:57:04;10.50;99.90
28010;DHT22;15334;49.494;8.410;2023-03-19T04:59:32;10.50;99.90
28010;DHT22;15334;49.494;8.410;2023-03-19T05:02:02;10.50;99.90
28010;DHT22;15334;49.494;8.410;2023-03-19T05:04:33;10.50;99.90
28010;DHT22;15334;49.494;8.410;2023-03-19T05:07:04;10.50;99.90
28010;DHT22;15334;49.494;8.410;2023-03-19T05:09:33;10.50;99.90
28010;DHT22;15334;49.494;8.410;2023-03-19T05:12:01;10.50;99.90
28010;DHT22;15334;49.494;8.410;2023-03-19T05:14:32;10.50;99.90
28010;DHT22;15334;49.494;8.410;2023-03-19T05:17:01;10.40;99.90
28010;DHT22;15334;49.494;8.410;2023-03-19T05:19:38;10.40;99.90
28010;DHT22;15334;49.494;8.410;2023-03-19T05:22:06;10.30;99.90
28010;DHT22;15334;49.494;8.410;2023-03-19T05:24:46;10.30;99.90
28010;DHT22;15334;49.494;8.410;2023-03-19T05:27:15;10.30;99.90
28010;DHT22;15334;49.494;8.410;2023-03-19T05:29:43;10.30;99.90
28010;DHT22;15334;49.494;8.410;2023-03-19T05:32:21;10.40;99.90
28010;DHT22;15334;49.494;8.410;2023-03-19T05:34:49;10.40;99.90
28010;DHT22;15334;49.494;8.410;2023-03-19T05:37:17;10.40;99.90
28010;DHT22;15334;49.494;8.410;2023-03-19T05:39:53;10.40;99.90
28010;DHT22;15334;49.494;8.410;2023-03-19T05:42:21;10.40;99.90
28010;DHT22;15334;49.494;8.410;2023-03-19T05:44:52;10.50;99.90
28010;DHT22;15334;49.494;8.410;2023-03-19T05:47:29;10.50;99.90
28010;DHT22;15334;49.494;8.410;2023-03-19T05:49:59;10.50;99.90
28010;DHT22;15334;49.494;8.410;2023-03-19T05:52:35;10.60;99.90
28010;DHT22;15334;49.494;8.410;2023-03-19T05:55:07;10.60;99.90
28010;DHT22;15334;49.494;8.410;2023-03-19T05:57:46;10.60;99.90
28010;DHT22;15334;49.494;8.410;2023-03-19T06:00:22;10.60;99.90
28010;DHT22;15334;49.494;8.410;2023-03-19T06:02:54;10.60;99.90
28010;DHT22;15334;49.494;8.410;2023-03-19T06:05:27;10.60;99.90
28010;DHT22;15334;49.494;8.410;2023-03-19T06:08:00;10.50;99.90
28010;DHT22;15334;49.494;8.410;2023-03-19T06:10:31;10.40;99.90
28010;DHT22;15334;49.494;8.410;2023-03-19T06:13:03;10.40;99.90
28010;DHT22;15334;49.494;8.410;2023-03-19T06:15:32;10.40;99.90
28010;DHT22;15334;49.494;8.410;2023-03-19T06:18:07;10.40;99.90
28010;DHT22;15334;49.494;8.410;2023-03-19T06:20:35;10.50;99.90
28010;DHT22;15334;49.494;8.410;2023-03-19T06:23:06;10.50;99.90
28010;DHT22;15334;49.494;8.410;2023-03-19T06:25:34;10.60;99.90
28010;DHT22;15334;49.494;8.410;2023-03-19T06:28:02;10.70;99.90
28010;DHT22;15334;49.494;8.410;2023-03-19T06:30:33;10.70;99.90
28010;DHT22;15334;49.494;8.410;2023-03-19T06:33:04;10.80;99.90
28010;DHT22;15334;49.494;8.410;2023-03-19T06:35:36;10.90;99.90
28010;DHT22;15334;49.494;8.410;2023-03-19T06:38:07;11.00;99.90
28010;DHT22;15334;49.494;8.410;2023-03-19T06:40:35;11.00;99.90
28010;DHT22;15334;49.494;8.410;2023-03-19T06:43:07;11.20;99.90
28010;DHT22;15334;49.494;8.410;2023-03-19T06:45:40;11.20;99.90
28010;DHT22;15334;49.494;8.410;2023-03-19T06:48:10;11.30;99.90
28010;DHT22;15334;49.494;8.410;2023-03-19T06:50:38;11.40;99.90
28010;DHT22;15334;49.494;8.410;2023-03-19T06:53:06;11.40;99.90
28010;DHT22;15334;49.494;8.410;2023-03-19T06:55:35;11.50;99.90
28010;DHT22;15334;49.494;8.410;2023-03-19T06:58:03;11.50;99.90
28010;DHT22;15334;49.494;8.410;2023-03-19T07:00:34;11.60;99.90
28010;DHT22;15334;49.494;8.410;2023-03-19T07:03:07;11.60;99.90
28010;DHT22;15334;49.494;8.410;2023-03-19T07:05:52;11.60;99.90
28010;DHT22;15334;49.494;8.410;2023-03-19T07:09:05;11.70;99.90
28010;DHT22;15334;49.494;8.410;2023-03-19T07:11:59;11.80;99.90
28010;DHT22;15334;49.494;8.410;2023-03-19T07:14:27;11.80;99.90
28010;DHT22;15334;49.494;8.410;2023-03-19T07:16:56;11.70;99.90
28010;DHT22;15334;49.494;8.410;2023-03-19T07:19:27;11.70;99.90
28010;DHT22;15334;49.494;8.410;2023-03-19T07:21:56;11.70;99.90
28010;DHT22;15334;49.494;8.410;2023-03-19T07:24:24;11.80;99.90
28010;DHT22;15334;49.494;8.410;2023-03-19T07:26:52;11.80;99.90
28010;DHT22;15334;49.494;8.410;2023-03-19T07:29:23;11.80;99.90
28010;DHT22;15334;49.494;8.410;2023-03-19T07:31:51;11.80;99.90
28010;DHT22;15334;49.494;8.410;2023-03-19T07:34:19;11.90;99.90
28010;DHT22;15334;49.494;8.410;2023-03-19T07:36:47;11.80;99.90
28010;DHT22;15334;49.494;8.410;2023-03-19T07:39:20;11.80;99.90
28010;DHT22;15334;49.494;8.410;2023-03-19T07:41:48;11.80;99.90
28010;DHT22;15334;49.494;8.410;2023-03-19T07:44:17;11.90;99.90
28010;DHT22;15334;49.494;8.410;2023-03-19T07:46:48;11.90;99.90
28010;DHT22;15334;49.494;8.410;2023-03-19T07:49:16;12.00;99.90
28010;DHT22;15334;49.494;8.410;2023-03-19T07:51:44;12.00;99.90
28010;DHT22;15334;49.494;8.410;2023-03-19T07:54:14;12.10;99.90
28010;DHT22;15334;49.494;8.410;2023-03-19T07:56:44;12.20;99.90
28010;DHT22;15334;49.494;8.410;2023-03-19T07:59:14;12.30;99.90
28010;DHT22;15334;49.494;8.410;2023-03-19T08:01:42;12.40;99.90
28010;DHT22;15334;49.494;8.410;2023-03-19T08:04:10;12.60;99.90
28010;DHT22;15334;49.494;8.410;2023-03-19T08:06:40;12.80;99.90
28010;DHT22;15334;49.494;8.410;2023-03-19T08:09:08;12.80;99.90
28010;DHT22;15334;49.494;8.410;2023-03-19T08:11:36;13.00;99.90
28010;DHT22;15334;49.494;8.410;2023-03-19T08:14:05;13.10;99.90
28010;DHT22;15334;49.494;8.410;2023-03-19T08:16:36;13.20;99.90
28010;DHT22;15334;49.494;8.410;2023-03-19T08:19:04;13.40;99.90
28010;DHT22;15334;49.494;8.410;2023-03-19T08:21:32;13.40;99.90
28010;DHT22;15334;49.494;8.410;2023-03-19T08:24:00;13.50;99.90
28010;DHT22;15334;49.494;8.410;2023-03-19T08:26:30;13.60;99.90
28010;DHT22;15334;49.494;8.410;2023-03-19T08:28:59;13.80;99.90
28010;DHT22;15334;49.494;8.410;2023-03-19T08:31:29;13.80;99.90
28010;DHT22;15334;49.494;8.410;2023-03-19T08:33:58;14.00;99.90
28010;DHT22;15334;49.494;8.410;2023-03-19T08:36:31;14.10;99.90
28010;DHT22;15334;49.494;8.410;2023-03-19T08:39:03;14.10;99.90
28010;DHT22;15334;49.494;8.410;2023-03-19T08:41:34;14.20;99.90
28010;DHT22;15334;49.494;8.410;2023-03-19T08:44:17;14.30;99.90
28010;DHT22;15334;49.494;8.410;2023-03-19T08:46:52;14.40;99.90
28010;DHT22;15334;49.494;8.410;2023-03-19T08:49:20;14.50;99.90
28010;DHT22;15334;49.494;8.410;2023-03-19T08:51:49;14.70;99.90
28010;DHT22;15334;49.494;8.410;2023-03-19T08:54:33;14.90;99.90
28010;DHT22;15334;49.494;8.410;2023-03-19T08:57:02;15.00;99.90
28010;DHT22;15334;49.494;8.410;2023-03-19T08:59:30;15.00;99.90
28010;DHT22;15334;49.494;8.410;2023-03-19T09:02:04;15.20;99.90
28010;DHT22;15334;49.494;8.410;2023-03-19T09:04:41;15.40;99.90
28010;DHT22;15334;49.494;8.410;2023-03-19T09:07:25;15.50;99.90
28010;DHT22;15334;49.494;8.410;2023-03-19T09:09:59;15.50;99.90
28010;DHT22;15334;49.494;8.410;2023-03-19T09:12:31;15.40;99.90
28010;DHT22;15334;49.494;8.410;2023-03-19T09:15:05;15.40;99.90
28010;DHT22;15334;49.494;8.410;2023-03-19T09:17:49;15.50;99.90
28010;DHT22;15334;49.494;8.410;2023-03-19T09:20:26;15.50;99.90
28010;DHT22;15334;49.494;8.410;2023-03-19T09:23:07;15.60;99.90
28010;DHT22;15334;49.494;8.410;2023-03-19T09:25:50;15.70;99.90
28010;DHT22;15334;49.494;8.410;2023-03-19T09:28:33;15.70;99.90
28010;DHT22;15334;49.494;8.410;2023-03-19T09:31:12;15.60;99.90
28010;DHT22;15334;49.494;8.410;2023-03-19T09:34:17;15.70;99.90
28010;DHT22;15334;49.494;8.410;2023-03-19T09:36:49;15.90;99.90
28010;DHT22;15334;49.494;8.410;2023-03-19T09:39:31;16.20;99.90
28010;DHT22;15334;49.494;8.410;2023-03-19T09:42:14;16.50;99.90
28010;DHT22;15334;49.494;8.410;2023-03-19T09:44:46;16.70;99.90
28010;DHT22;15334;49.494;8.410;2023-03-19T09:47:26;16.60;99.90
28010;DHT22;15334;49.494;8.410;2023-03-19T09:50:11;16.60;99.90
28010;DHT22;15334;49.494;8.410;2023-03-19T09:52:45;16.70;99.90
28010;DHT22;15334;49.494;8.410;2023-03-19T09:55:30;16.80;99.90
28010;DHT22;15334;49.494;8.410;2023-03-19T09:58:16;17.00;99.90
28010;DHT22;15334;49.494;8.410;2023-03-19T10:00:51;17.20;99.90
28010;DHT22;15334;49.494;8.410;2023-03-19T10:03:42;17.60;99.90
28010;DHT22;15334;49.494;8.410;2023-03-19T10:06:28;18.10;99.90
28010;DHT22;15334;49.494;8.410;2023-03-19T10:09:10;18.10;99.90
28010;DHT22;15334;49.494;8.410;2023-03-19T10:11:53;18.10;99.90
28010;DHT22;15334;49.494;8.410;2023-03-19T10:17:53;18.20;99.90
28010;DHT22;15334;49.494;8.410;2023-03-19T10:20:44;18.20;99.90
28010;DHT22;15334;49.494;8.410;2023-03-19T10:26:15;18.10;99.90
28010;DHT22;15334;49.494;8.410;2023-03-19T10:28:54;18.00;99.90
28010;DHT22;15334;49.494;8.410;2023-03-19T10:31:27;17.70;99.90
28010;DHT22;15334;49.494;8.410;2023-03-19T10:34:06;17.50;99.90
28010;DHT22;15334;49.494;8.410;2023-03-19T10:36:40;17.50;99.90
28010;DHT22;15334;49.494;8.410;2023-03-19T10:39:17;17.50;99.90
28010;DHT22;15334;49.494;8.410;2023-03-19T10:41:50;17.70;99.90
28010;DHT22;15334;49.494;8.410;2023-03-19T10:44:27;17.70;98.50
28010;DHT22;15334;49.494;8.410;2023-03-19T10:47:03;17.80;99.30
28010;DHT22;15334;49.494;8.410;2023-03-19T10:49:43;18.00;99.90
28010;DHT22;15334;49.494;8.410;2023-03-19T10:52:19;18.20;98.40
28010;DHT22;15334;49.494;8.410;2023-03-19T10:55:01;18.40;99.30
28010;DHT22;15334;49.494;8.410;2023-03-19T10:57:32;18.70;96.90
28010;DHT22;15334;49.494;8.410;2023-03-19T11:00:05;18.80;96.90
28010;DHT22;15334;49.494;8.410;2023-03-19T11:02:37;18.70;95.20
28010;DHT22;15334;49.494;8.410;2023-03-19T11:05:22;18.70;97.20
28010;DHT22;15334;49.494;8.410;2023-03-19T11:07:54;18.80;97.40
28010;DHT22;15334;49.494;8.410;2023-03-19T11:10:26;18.90;98.10
28010;DHT22;15334;49.494;8.410;2023-03-19T11:12:56;19.10;98.90
28010;DHT22;15334;49.494;8.410;2023-03-19T11:15:27;19.20;98.10
28010;DHT22;15334;49.494;8.410;2023-03-19T11:17:57;20.00;96.70
28010;DHT22;15334;49.494;8.410;2023-03-19T11:20:29;20.90;93.30
28010;DHT22;15334;49.494;8.410;2023-03-19T11:23:00;21.30;92.20
28010;DHT22;15334;49.494;8.410;2023-03-19T11:25:35;21.30;91.30
28010;DHT22;15334;49.494;8.410;2023-03-19T11:28:07;20.90;91.50
28010;DHT22;15334;49.494;8.410;2023-03-19T11:30:37;20.70;91.80
28010;DHT22;15334;49.494;8.410;2023-03-19T11:33:30;20.70;91.20
28010;DHT22;15334;49.494;8.410;2023-03-19T11:36:09;20.50;93.30
28010;DHT22;15334;49.494;8.410;2023-03-19T11:38:49;20.20;92.50
28010;DHT22;15334;49.494;8.410;2023-03-19T11:41:29;19.60;91.80
28010;DHT22;15334;49.494;8.410;2023-03-19T11:44:03;19.00;92.50
28010;DHT22;15334;49.494;8.410;2023-03-19T11:46:38;18.40;94.50
28010;DHT22;15334;49.494;8.410;2023-03-19T11:52:17;17.90;94.20
28010;DHT22;15334;49.494;8.410;2023-03-19T11:54:57;17.70;94.70
28010;DHT22;15334;49.494;8.410;2023-03-19T11:57:49;17.60;95.20
28010;DHT22;15334;49.494;8.410;2023-03-19T12:00:27;17.40;94.80
28010;DHT22;15334;49.494;8.410;2023-03-19T12:06:06;17.20;94.70
28010;DHT22;15334;49.494;8.410;2023-03-19T12:08:41;17.10;96.00
28010;DHT22;15334;49.494;8.410;2023-03-19T12:11:18;17.10;95.50
28010;DHT22;15334;49.494;8.410;2023-03-19T12:14:08;17.10;95.30
28010;DHT22;15334;49.494;8.410;2023-03-19T12:16:58;17.10;94.70
28010;DHT22;15334;49.494;8.410;2023-03-19T12:19:39;17.20;95.70
28010;DHT22;15334;49.494;8.410;2023-03-19T12:22:16;17.20;95.30
28010;DHT22;15334;49.494;8.410;2023-03-19T12:25:02;17.10;95.90
28010;DHT22;15334;49.494;8.410;2023-03-19T12:27:39;17.10;95.80
28010;DHT22;15334;49.494;8.410;2023-03-19T12:30:18;17.10;96.00
28010;DHT22;15334;49.494;8.410;2023-03-19T12:33:10;17.30;97.30
28010;DHT22;15334;49.494;8.410;2023-03-19T12:35:42;17.20;96.60
28010;DHT22;15334;49.494;8.410;2023-03-19T12:38:17;17.20;98.80
28010;DHT22;15334;49.494;8.410;2023-03-19T12:40:52;17.10;98.00
28010;DHT22;15334;49.494;8.410;2023-03-19T12:43:27;17.10;97.20
28010;DHT22;15334;49.494;8.410;2023-03-19T12:46:00;17.00;96.90
28010;DHT22;15334;49.494;8.410;2023-03-19T12:48:34;16.90;97.50
28010;DHT22;15334;49.494;8.410;2023-03-19T12:51:09;16.70;99.70
28010;DHT22;15334;49.494;8.410;2023-03-19T12:53:44;16.50;99.90
28010;DHT22;15334;49.494;8.410;2023-03-19T12:56:23;15.80;99.90
28010;DHT22;15334;49.494;8.410;2023-03-19T12:58:59;15.20;99.90
28010;DHT22;15334;49.494;8.410;2023-03-19T13:01:34;14.90;99.90
28010;DHT22;15334;49.494;8.410;2023-03-19T13:04:09;14.70;99.90
28010;DHT22;15334;49.494;8.410;2023-03-19T13:06:42;14.60;99.90
28010;DHT22;15334;49.494;8.410;2023-03-19T13:09:17;14.50;99.90
28010;DHT22;15334;49.494;8.410;2023-03-19T13:11:50;14.50;99.90
28010;DHT22;15334;49.494;8.410;2023-03-19T13:14:25;14.40;99.90
28010;DHT22;15334;49.494;8.410;2023-03-19T13:17:05;14.30;99.90
28010;DHT22;15334;49.494;8.410;2023-03-19T13:19:41;14.20;99.90
28010;DHT22;15334;49.494;8.410;2023-03-19T13:22:14;14.10;99.90
28010;DHT22;15334;49.494;8.410;2023-03-19T13:24:46;14.10;99.90
28010;DHT22;15334;49.494;8.410;2023-03-19T13:27:20;14.00;99.90
28010;DHT22;15334;49.494;8.410;2023-03-19T13:30:00;14.00;99.90
28010;DHT22;15334;49.494;8.410;2023-03-19T13:32:39;13.90;99.90
28010;DHT22;15334;49.494;8.410;2023-03-19T13:35:38;13.80;99.90
28010;DHT22;15334;49.494;8.410;2023-03-19T13:38:19;13.80;99.90
28010;DHT22;15334;49.494;8.410;2023-03-19T13:40:48;13.80;99.90
28010;DHT22;15334;49.494;8.410;2023-03-19T13:46:38;13.60;99.90
28010;DHT22;15334;49.494;8.410;2023-03-19T13:49:28;13.60;99.90
28010;DHT22;15334;49.494;8.410;2023-03-19T13:52:00;13.50;99.90
28010;DHT22;15334;49.494;8.410;2023-03-19T13:54:37;13.50;99.90
28010;DHT22;15334;49.494;8.410;2023-03-19T13:57:18;13.70;99.90
28010;DHT22;15334;49.494;8.410;2023-03-19T13:59:47;13.80;99.90
28010;DHT22;15334;49.494;8.410;2023-03-19T14:02:46;13.70;99.90
28010;DHT22;15334;49.494;8.410;2023-03-19T14:05:19;13.70;99.90
28010;DHT22;15334;49.494;8.410;2023-03-19T14:07:52;13.70;99.90
28010;DHT22;15334;49.494;8.410;2023-03-19T14:10:23;13.80;99.90
28010;DHT22;15334;49.494;8.410;2023-03-19T14:13:02;13.80;99.90
28010;DHT22;15334;49.494;8.410;2023-03-19T14:15:32;13.70;99.90
28010;DHT22;15334;49.494;8.410;2023-03-19T14:18:02;13.80;99.90
28010;DHT22;15334;49.494;8.410;2023-03-19T14:20:42;13.90;99.90
28010;DHT22;15334;49.494;8.410;2023-03-19T14:23:20;13.90;99.90
28010;DHT22;15334;49.494;8.410;2023-03-19T14:26:10;14.00;99.90
28010;DHT22;15334;49.494;8.410;2023-03-19T14:28:46;14.20;99.90
28010;DHT22;15334;49.494;8.410;2023-03-19T14:31:22;14.40;99.90
28010;DHT22;15334;49.494;8.410;2023-03-19T14:34:01;14.50;99.90
28010;DHT22;15334;49.494;8.410;2023-03-19T14:36:35;14.70;99.90
28010;DHT22;15334;49.494;8.410;2023-03-19T14:39:10;15.00;99.90
28010;DHT22;15334;49.494;8.410;2023-03-19T14:41:42;15.00;99.90
28010;DHT22;15334;49.494;8.410;2023-03-19T14:47:23;15.50;99.90
28010;DHT22;15334;49.494;8.410;2023-03-19T14:50:03;15.70;99.90
28010;DHT22;15334;49.494;8.410;2023-03-19T14:52:45;15.60;99.90
28010;DHT22;15334;49.494;8.410;2023-03-19T14:55:17;15.60;99.90
28010;DHT22;15334;49.494;8.410;2023-03-19T14:57:45;15.80;99.90
28010;DHT22;15334;49.494;8.410;2023-03-19T15:00:16;15.90;99.90
28010;DHT22;15334;49.494;8.410;2023-03-19T15:02:46;15.80;99.90
28010;DHT22;15334;49.494;8.410;2023-03-19T15:05:20;15.80;99.90
28010;DHT22;15334;49.494;8.410;2023-03-19T15:07:54;15.90;99.90
28010;DHT22;15334;49.494;8.410;2023-03-19T15:10:27;16.00;99.90
28010;DHT22;15334;49.494;8.410;2023-03-19T15:13:09;16.00;99.90
28010;DHT22;15334;49.494;8.410;2023-03-19T15:16:07;16.00;99.90
28010;DHT22;15334;49.494;8.410;2023-03-19T15:18:37;16.20;99.90
28010;DHT22;15334;49.494;8.410;2023-03-19T15:21:05;16.30;99.90
28010;DHT22;15334;49.494;8.410;2023-03-19T15:23:36;16.30;99.90
28010;DHT22;15334;49.494;8.410;2023-03-19T15:26:06;16.40;99.90
28010;DHT22;15334;49.494;8.410;2023-03-19T15:28:45;16.60;99.90
28010;DHT22;15334;49.494;8.410;2023-03-19T15:31:15;16.80;99.90
28010;DHT22;15334;49.494;8.410;2023-03-19T15:34:19;17.00;99.90
28010;DHT22;15334;49.494;8.410;2023-03-19T15:36:49;17.10;99.90
28010;DHT22;15334;49.494;8.410;2023-03-19T15:39:22;17.10;99.90
28010;DHT22;15334;49.494;8.410;2023-03-19T15:41:52;17.00;99.90
28010;DHT22;15334;49.494;8.410;2023-03-19T15:44:26;17.10;99.90
28010;DHT22;15334;49.494;8.410;2023-03-19T15:46:56;16.90;99.90
28010;DHT22;15334;49.494;8.410;2023-03-19T15:49:28;16.80;99.90
28010;DHT22;15334;49.494;8.410;2023-03-19T15:51:59;16.60;99.90
28010;DHT22;15334;49.494;8.410;2023-03-19T15:54:31;16.50;99.90
28010;DHT22;15334;49.494;8.410;2023-03-19T15:57:02;16.40;99.90
28010;DHT22;15334;49.494;8.410;2023-03-19T15:59:32;16.20;99.90
28010;DHT22;15334;49.494;8.410;2023-03-19T16:02:02;16.10;99.90
28010;DHT22;15334;49.494;8.410;2023-03-19T16:04:32;16.20;99.90
28010;DHT22;15334;49.494;8.410;2023-03-19T16:07:23;16.10;99.90
28010;DHT22;15334;49.494;8.410;2023-03-19T16:09:54;16.20;99.90
28010;DHT22;15334;49.494;8.410;2023-03-19T16:12:34;16.30;99.90
28010;DHT22;15334;49.494;8.410;2023-03-19T16:15:23;16.30;99.90
28010;DHT22;15334;49.494;8.410;2023-03-19T16:17:55;16.20;99.90
28010;DHT22;15334;49.494;8.410;2023-03-19T16:20:40;16.10;99.90
28010;DHT22;15334;49.494;8.410;2023-03-19T16:23:15;16.00;99.90
28010;DHT22;15334;49.494;8.410;2023-03-19T16:25:45;16.00;99.90
28010;DHT22;15334;49.494;8.410;2023-03-19T16:28:15;16.10;99.90
28010;DHT22;15334;49.494;8.410;2023-03-19T16:30:45;16.10;99.90